Time;durP1;ratioP1;P1;durP2;ratioP2;P2;SDS_P1;SDS_P2;PMS_P1;PMS_P2;Temp;Humidity;BMP_temperature;BMP_pressure;BME280_temperature;BME280_humidity;BME280_pressure;Samples;Min_cycle;Max_cycle;Signal;HPM_P1;HPM_P2
2023/07/24 00:00:35;;;;;;;8.82;6.05;;;16.60;99.90;;;;;;5036994;28;20037;-82
2023/07/24 00:03:01;;;;;;;7.88;5.63;;;16.50;99.90;;;;;;5057945;28;20041;-82
2023/07/24 00:05:27;;;;;;;6.47;5.82;;;16.50;99.90;;;;;;5054337;28;20037;-83
2023/07/24 00:07:52;;;;;;;10.10;6.70;;;16.50;99.90;;;;;;5055640;28;20071;-82
2023/07/24 00:10:18;;;;;;;8.52;6.15;;;16.50;99.90;;;;;;5053660;28;20709;-82
2023/07/24 00:12:43;;;;;;;6.93;5.78;;;16.50;99.90;;;;;;5049203;28;20029;-83
2023/07/24 00:15:09;;;;;;;8.90;6.35;;;16.50;99.90;;;;;;5052800;28;20041;-83
2023/07/24 00:17:35;;;;;;;8.85;6.45;;;16.50;99.90;;;;;;5055917;28;20033;-82
2023/07/24 00:20:00;;;;;;;13.20;6.25;;;16.50;99.90;;;;;;5053904;28;20063;-82
2023/07/24 00:22:26;;;;;;;8.55;6.57;;;16.50;99.90;;;;;;5050994;28;20127;-82
2023/07/24 00:24:51;;;;;;;10.63;6.13;;;16.50;99.90;;;;;;5053402;28;20036;-82
2023/07/24 00:27:17;;;;;;;7.78;5.95;;;16.50;99.90;;;;;;5036873;28;20075;-82
2023/07/24 00:29:42;;;;;;;8.07;6.97;;;16.50;99.90;;;;;;5041053;28;20041;-83
2023/07/24 00:32:08;;;;;;;8.95;6.78;;;16.50;99.90;;;;;;5036353;28;20081;-83
2023/07/24 00:34:34;;;;;;;9.25;7.22;;;16.40;99.90;;;;;;5054505;28;20089;-82
2023/07/24 00:36:59;;;;;;;8.75;6.85;;;16.40;99.90;;;;;;5051216;28;20051;-83
2023/07/24 00:39:28;;;;;;;8.65;6.60;;;16.40;99.90;;;;;;5051290;28;21032;-82
2023/07/24 00:41:54;;;;;;;12.13;7.97;;;16.30;99.90;;;;;;5052751;28;20052;-82
2023/07/24 00:44:19;;;;;;;11.75;8.77;;;16.40;99.90;;;;;;5035603;28;20041;-83
2023/07/24 00:46:45;;;;;;;12.70;8.18;;;16.40;99.90;;;;;;5039727;28;20036;-82
2023/07/24 00:49:12;;;;;;;10.18;9.10;;;16.50;99.90;;;;;;5022982;28;20048;-83
2023/07/24 00:51:37;;;;;;;10.80;8.70;;;16.50;99.90;;;;;;5038185;28;20866;-82
2023/07/24 00:54:05;;;;;;;10.93;9.85;;;16.70;99.90;;;;;;5054554;28;20053;-82
2023/07/24 00:56:32;;;;;;;11.00;10.07;;;16.40;99.90;;;;;;5033326;28;20087;-83
2023/07/24 00:58:57;;;;;;;10.98;9.88;;;16.50;99.90;;;;;;5051809;28;20454;-82
2023/07/24 01:01:25;;;;;;;12.23;10.60;;;16.50;99.90;;;;;;5025469;28;20119;-83
2023/07/24 01:03:52;;;;;;;12.93;11.73;;;16.60;99.90;;;;;;5053036;28;20120;-83
2023/07/24 01:06:17;;;;;;;12.68;11.48;;;16.80;99.90;;;;;;5035039;28;20076;-83
2023/07/24 01:08:43;;;;;;;11.88;10.88;;;16.60;99.90;;;;;;5034950;28;20048;-83
2023/07/24 01:11:15;;;;;;;12.02;11.00;;;16.60;99.90;;;;;;5037316;28;21019;-82
2023/07/24 01:13:47;;;;;;;12.77;11.50;;;16.60;99.90;;;;;;5054161;28;20048;-83
2023/07/24 01:16:18;;;;;;;13.35;11.75;;;16.60;99.90;;;;;;5038082;28;20113;-83
2023/07/24 01:18:45;;;;;;;11.82;10.65;;;16.60;99.90;;;;;;5058640;28;20037;-82
2023/07/24 01:21:14;;;;;;;12.63;11.52;;;16.70;99.90;;;;;;5040162;28;20060;-82
2023/07/24 01:24:03;;;;;;;11.52;10.43;;;16.70;99.90;;;;;;5036349;28;20120;-82
2023/07/24 01:26:28;;;;;;;10.82;9.93;;;16.70;99.90;;;;;;5053614;28;20037;-82
2023/07/24 01:28:54;;;;;;;11.35;10.35;;;16.80;99.90;;;;;;5041240;28;20048;-82
2023/07/24 01:31:20;;;;;;;10.73;9.73;;;16.80;99.90;;;;;;5039017;28;20045;-82
2023/07/24 01:33:45;;;;;;;11.50;9.68;;;16.80;99.90;;;;;;5021784;28;20056;-83
2023/07/24 01:36:13;;;;;;;9.88;8.98;;;16.70;99.90;;;;;;5055425;28;20079;-83
2023/07/24 01:38:40;;;;;;;9.52;8.73;;;16.90;99.90;;;;;;5036855;28;20044;-83
2023/07/24 01:41:05;;;;;;;9.10;8.30;;;16.70;99.90;;;;;;5055171;28;20578;-82
2023/07/24 01:43:32;;;;;;;9.82;8.93;;;16.70;99.90;;;;;;5052044;28;20043;-82
2023/07/24 01:45:57;;;;;;;9.05;8.27;;;16.60;99.90;;;;;;5054728;28;20052;-82
2023/07/24 01:48:23;;;;;;;9.77;8.93;;;16.70;99.90;;;;;;5034653;28;20037;-83
2023/07/24 01:50:49;;;;;;;9.35;8.55;;;17.00;99.90;;;;;;5059928;28;20136;-83
2023/07/24 01:53:15;;;;;;;9.65;8.50;;;16.60;99.90;;;;;;5039523;28;20053;-82
2023/07/24 01:55:42;;;;;;;12.57;8.63;;;16.60;99.90;;;;;;5059463;28;20040;-83
2023/07/24 01:58:08;;;;;;;9.07;8.18;;;17.20;99.90;;;;;;5003898;28;20041;-82
2023/07/24 02:00:33;;;;;;;9.73;8.93;;;16.80;99.90;;;;;;5032025;28;20040;-83
2023/07/24 02:02:59;;;;;;;8.80;8.00;;;16.60;99.90;;;;;;5034552;28;20049;-83
2023/07/24 02:05:25;;;;;;;8.85;8.10;;;16.60;99.90;;;;;;5034410;28;20105;-83
2023/07/24 02:07:51;;;;;;;8.98;8.13;;;16.60;99.90;;;;;;5056654;28;20051;-83
2023/07/24 02:10:17;;;;;;;8.27;7.57;;;16.60;99.90;;;;;;5052931;28;20464;-83
2023/07/24 02:12:42;;;;;;;8.63;7.93;;;16.60;99.90;;;;;;5038711;28;20045;-82
2023/07/24 02:15:08;;;;;;;8.20;7.50;;;16.90;99.90;;;;;;5035527;28;20052;-82
2023/07/24 02:17:34;;;;;;;9.43;8.50;;;16.70;99.90;;;;;;5054386;28;20069;-82
2023/07/24 02:20:00;;;;;;;11.02;8.50;;;16.70;99.90;;;;;;5051925;28;20045;-83
2023/07/24 02:22:25;;;;;;;8.57;7.97;;;16.70;99.90;;;;;;5020315;28;20488;-83
2023/07/24 02:24:51;;;;;;;9.45;8.52;;;16.70;99.90;;;;;;5042597;28;20033;-83
2023/07/24 02:27:31;;;;;;;11.85;9.30;;;16.70;99.90;;;;;;5051183;28;20037;-83
2023/07/24 02:29:57;;;;;;;9.30;8.48;;;16.60;99.90;;;;;;5047599;28;20045;-82
2023/07/24 02:32:23;;;;;;;9.85;8.73;;;16.60;99.90;;;;;;5031588;28;20515;-83
2023/07/24 02:34:50;;;;;;;8.82;7.93;;;16.60;99.90;;;;;;5052759;28;20097;-82
2023/07/24 02:37:15;;;;;;;8.88;8.07;;;16.60;99.90;;;;;;5035932;28;20044;-83
2023/07/24 02:39:41;;;;;;;9.38;8.43;;;16.60;99.90;;;;;;5032972;28;20041;-83
2023/07/24 02:42:07;;;;;;;9.57;8.77;;;16.70;99.90;;;;;;5037522;28;20033;-83
2023/07/24 02:44:34;;;;;;;9.30;8.55;;;16.50;99.90;;;;;;5022815;28;20033;-83
2023/07/24 02:47:00;;;;;;;10.02;8.60;;;16.50;99.90;;;;;;5053528;28;20037;-83
2023/07/24 02:49:25;;;;;;;8.85;8.15;;;16.80;99.90;;;;;;5034612;28;20041;-83
2023/07/24 02:51:51;;;;;;;10.13;8.48;;;16.50;99.90;;;;;;5034454;28;20037;-83
2023/07/24 02:54:16;;;;;;;9.32;8.52;;;16.50;99.90;;;;;;5050603;28;20036;-82
2023/07/24 02:56:42;;;;;;;9.65;8.70;;;16.40;99.90;;;;;;5034514;28;20116;-83
2023/07/24 02:59:07;;;;;;;9.60;8.60;;;16.40;99.90;;;;;;5033655;28;20098;-83
2023/07/24 03:01:33;;;;;;;9.15;8.25;;;16.40;99.90;;;;;;5034694;28;20044;-83
2023/07/24 03:03:58;;;;;;;9.23;7.57;;;16.50;99.90;;;;;;5020558;28;20041;-83
2023/07/24 03:06:25;;;;;;;8.70;8.00;;;16.40;99.90;;;;;;5037462;28;20399;-82
2023/07/24 03:08:51;;;;;;;9.65;8.85;;;16.40;99.90;;;;;;5022719;28;20094;-83
2023/07/24 03:11:16;;;;;;;8.55;7.75;;;16.40;99.90;;;;;;5036964;28;20041;-83
2023/07/24 03:13:42;;;;;;;9.10;7.80;;;17.00;99.90;;;;;;5036752;28;20125;-83
2023/07/24 03:16:08;;;;;;;8.85;8.02;;;16.40;99.90;;;;;;5049115;28;20090;-82
2023/07/24 03:18:34;;;;;;;8.55;7.75;;;16.30;99.90;;;;;;5048873;28;20044;-82
2023/07/24 03:20:59;;;;;;;9.73;8.70;;;16.40;99.90;;;;;;5035269;28;20040;-83
2023/07/24 03:23:25;;;;;;;9.13;8.18;;;16.40;99.90;;;;;;5051684;28;20053;-83
2023/07/24 03:25:51;;;;;;;8.80;7.97;;;16.30;99.90;;;;;;5051806;28;20033;-83
2023/07/24 03:28:16;;;;;;;9.23;8.40;;;16.30;99.90;;;;;;5020211;28;20052;-83
2023/07/24 03:30:42;;;;;;;8.50;7.80;;;16.50;99.90;;;;;;5020594;28;20041;-83
2023/07/24 03:33:07;;;;;;;8.85;8.05;;;16.40;99.90;;;;;;5037834;28;20041;-83
2023/07/24 03:35:33;;;;;;;9.57;8.57;;;16.40;99.90;;;;;;5050760;28;20375;-83
2023/07/24 03:37:59;;;;;;;9.25;8.25;;;16.40;99.90;;;;;;5049315;28;20044;-83
2023/07/24 03:40:24;;;;;;;8.57;7.75;;;16.40;99.90;;;;;;5051935;28;20087;-83
2023/07/24 03:42:50;;;;;;;8.98;8.18;;;16.40;99.90;;;;;;5039185;28;20037;-83
2023/07/24 03:45:16;;;;;;;9.82;8.82;;;16.40;99.90;;;;;;5038774;28;20116;-83
2023/07/24 03:47:41;;;;;;;8.68;7.82;;;16.90;99.90;;;;;;5034722;28;20048;-83
2023/07/24 03:50:07;;;;;;;8.77;7.97;;;16.40;99.90;;;;;;5038909;28;20047;-82
2023/07/24 03:52:33;;;;;;;9.35;7.75;;;16.40;99.90;;;;;;5024775;28;20047;-83
2023/07/24 03:54:58;;;;;;;8.45;7.63;;;16.40;99.90;;;;;;5037591;28;20120;-83
2023/07/24 03:57:24;;;;;;;8.60;7.80;;;16.40;99.90;;;;;;5035143;28;20041;-83
2023/07/24 03:59:49;;;;;;;9.18;8.35;;;16.40;99.90;;;;;;5036624;28;20041;-83
2023/07/24 04:02:15;;;;;;;9.38;8.43;;;16.40;99.90;;;;;;5051553;28;20045;-83
2023/07/24 04:04:40;;;;;;;8.65;7.75;;;16.40;99.90;;;;;;5036807;28;20036;-83
2023/07/24 04:07:06;;;;;;;8.55;7.80;;;16.50;99.90;;;;;;5039200;28;20044;-83
2023/07/24 04:09:32;;;;;;;8.45;7.75;;;16.40;99.90;;;;;;5023073;28;20037;-83
2023/07/24 04:11:57;;;;;;;8.68;7.90;;;16.90;99.90;;;;;;5018266;28;20052;-83
2023/07/24 04:14:23;;;;;;;8.52;7.75;;;16.40;99.90;;;;;;5036663;28;20052;-83
2023/07/24 04:16:48;;;;;;;9.05;8.07;;;16.40;99.90;;;;;;5050812;28;20044;-83
2023/07/24 04:19:14;;;;;;;8.80;7.88;;;16.60;99.90;;;;;;5037671;28;20071;-82
2023/07/24 04:21:40;;;;;;;8.15;7.43;;;16.40;99.90;;;;;;5053964;28;20029;-83
2023/07/24 04:24:06;;;;;;;8.50;7.80;;;16.40;99.90;;;;;;5053450;28;20083;-82
2023/07/24 04:26:32;;;;;;;8.70;7.90;;;16.40;99.90;;;;;;5052466;28;20040;-83
2023/07/24 04:28:57;;;;;;;8.93;8.13;;;16.40;99.90;;;;;;5051727;28;20036;-82
2023/07/24 04:31:23;;;;;;;9.15;8.25;;;16.40;99.90;;;;;;5051579;28;20110;-82
2023/07/24 04:33:48;;;;;;;9.43;8.50;;;16.40;99.90;;;;;;5022229;28;20049;-82
2023/07/24 04:36:14;;;;;;;9.68;8.85;;;16.40;99.90;;;;;;5052883;28;20064;-82
2023/07/24 04:38:40;;;;;;;8.70;7.47;;;16.50;99.90;;;;;;5031890;28;20037;-82
2023/07/24 04:41:05;;;;;;;10.68;8.13;;;16.50;99.90;;;;;;5051073;28;20051;-83
2023/07/24 04:43:31;;;;;;;9.50;8.60;;;16.50;99.90;;;;;;5035771;28;20070;-84
2023/07/24 04:45:56;;;;;;;10.23;9.30;;;16.60;99.90;;;;;;5021827;28;20021;-84
2023/07/24 04:48:25;;;;;;;9.88;8.50;;;16.40;99.90;;;;;;5040755;28;20041;-85
2023/07/24 04:50:56;;;;;;;8.77;7.97;;;16.50;99.90;;;;;;5067693;28;20047;-85
2023/07/24 04:53:23;;;;;;;8.70;7.80;;;16.80;99.90;;;;;;5050387;28;20048;-84
2023/07/24 04:55:48;;;;;;;8.75;7.95;;;16.50;99.90;;;;;;5045744;28;20112;-84
2023/07/24 04:58:14;;;;;;;9.32;8.27;;;16.50;99.90;;;;;;5060777;28;20041;-84
2023/07/24 05:00:40;;;;;;;9.93;8.10;;;17.00;99.90;;;;;;5042988;28;20029;-84
2023/07/24 05:03:08;;;;;;;9.05;8.25;;;16.80;99.90;;;;;;5023753;28;20545;-83
2023/07/24 05:05:33;;;;;;;9.60;8.65;;;16.50;99.90;;;;;;5040610;28;20029;-83
2023/07/24 05:07:59;;;;;;;9.50;8.60;;;16.60;99.90;;;;;;5038840;28;20096;-83
2023/07/24 05:10:44;;;;;;;8.85;8.05;;;16.50;99.90;;;;;;5031140;28;20106;-83
2023/07/24 05:13:10;;;;;;;9.25;8.30;;;16.50;99.90;;;;;;5043224;28;20072;-82
2023/07/24 05:15:35;;;;;;;8.88;8.07;;;16.50;99.90;;;;;;5061269;28;20048;-84
2023/07/24 05:18:01;;;;;;;9.63;8.65;;;16.90;99.90;;;;;;5028972;28;20041;-84
2023/07/24 05:20:27;;;;;;;8.57;7.88;;;16.80;99.90;;;;;;5055150;28;20041;-83
2023/07/24 05:27:27;;;;;;;9.18;8.27;;;16.70;99.90;;;;;;5007664;28;20037;-85
2023/07/24 05:29:53;;;;;;;9.45;8.68;;;16.70;99.90;;;;;;5007069;28;20056;-83
2023/07/24 05:32:18;;;;;;;9.38;8.57;;;16.80;99.90;;;;;;5041125;28;20522;-83
2023/07/24 05:34:44;;;;;;;9.82;8.93;;;16.80;99.90;;;;;;5014635;28;20072;-81
2023/07/24 05:37:09;;;;;;;15.93;10.05;;;16.80;99.90;;;;;;5037203;28;20067;-82
2023/07/24 05:39:35;;;;;;;9.43;8.63;;;16.90;99.90;;;;;;5031403;28;20037;-82
2023/07/24 05:42:02;;;;;;;10.88;8.82;;;16.90;99.90;;;;;;5032342;28;20037;-82
2023/07/24 05:44:27;;;;;;;9.77;8.98;;;16.90;99.90;;;;;;5047757;28;20048;-83
2023/07/24 05:46:53;;;;;;;9.82;8.57;;;17.00;99.90;;;;;;5050219;28;20399;-81
2023/07/24 05:49:18;;;;;;;9.80;8.98;;;17.00;99.90;;;;;;5037625;28;20040;-82
2023/07/24 05:51:44;;;;;;;9.15;8.35;;;17.00;99.90;;;;;;5040598;28;20095;-83
2023/07/24 05:54:09;;;;;;;9.45;8.55;;;17.40;99.90;;;;;;5017646;28;20047;-83
2023/07/24 05:56:35;;;;;;;9.77;8.43;;;17.10;99.90;;;;;;5036780;28;20081;-83
2023/07/24 05:59:01;;;;;;;10.00;8.98;;;17.10;99.90;;;;;;5019327;28;20045;-82
2023/07/24 06:01:26;;;;;;;12.95;9.73;;;17.10;99.90;;;;;;5052013;28;20029;-83
2023/07/24 06:03:52;;;;;;;9.50;8.70;;;17.10;99.90;;;;;;5052412;28;20115;-82
2023/07/24 06:06:17;;;;;;;9.43;8.35;;;17.60;99.90;;;;;;5033261;28;20040;-82
2023/07/24 06:08:43;;;;;;;11.27;9.15;;;17.20;99.90;;;;;;5030345;28;20044;-82
2023/07/24 06:11:10;;;;;;;9.52;8.60;;;17.20;99.90;;;;;;5021359;28;20059;-81
2023/07/24 06:13:35;;;;;;;10.60;9.00;;;17.20;99.90;;;;;;5039052;28;20060;-81
2023/07/24 06:16:03;;;;;;;9.48;8.57;;;17.20;99.90;;;;;;5037335;28;20060;-82
2023/07/24 06:18:28;;;;;;;9.23;8.50;;;17.30;99.90;;;;;;5037131;28;20431;-82
2023/07/24 06:20:55;;;;;;;10.18;9.13;;;17.70;99.90;;;;;;5035328;28;20052;-84
2023/07/24 06:23:25;;;;;;;8.43;7.63;;;17.80;99.90;;;;;;5053086;28;20037;-83
2023/07/24 06:25:51;;;;;;;9.35;8.55;;;17.50;99.90;;;;;;5031579;28;20044;-83
2023/07/24 06:28:17;;;;;;;9.07;8.27;;;17.70;99.90;;;;;;5036047;28;20033;-83
2023/07/24 06:30:43;;;;;;;10.40;8.02;;;17.70;99.90;;;;;;5018448;28;20738;-81
2023/07/24 06:33:08;;;;;;;9.50;8.50;;;17.70;99.90;;;;;;5046323;28;20029;-81
2023/07/24 06:35:34;;;;;;;11.68;9.25;;;17.80;99.90;;;;;;5052430;28;20047;-82
2023/07/24 06:38:01;;;;;;;9.35;8.38;;;17.80;99.90;;;;;;5035904;28;20183;-83
2023/07/24 06:40:32;;;;;;;10.68;8.85;;;17.80;99.90;;;;;;5052499;28;20430;-82
2023/07/24 06:43:04;;;;;;;9.80;8.90;;;17.80;99.90;;;;;;5036277;28;20045;-83
2023/07/24 06:45:29;;;;;;;8.70;7.70;;;17.80;99.90;;;;;;5056356;28;21655;-83
2023/07/24 06:47:55;;;;;;;8.98;8.15;;;17.80;99.90;;;;;;5036745;28;20078;-81
2023/07/24 06:50:20;;;;;;;8.50;7.68;;;17.90;99.90;;;;;;5045355;28;20204;-81
2023/07/24 06:52:46;;;;;;;8.45;7.65;;;17.90;99.90;;;;;;5051334;28;20127;-81
2023/07/24 06:55:12;;;;;;;8.13;7.32;;;17.90;99.90;;;;;;5049385;28;20049;-81
2023/07/24 06:57:37;;;;;;;12.55;8.32;;;18.20;99.90;;;;;;5036574;28;20082;-81
2023/07/24 07:00:03;;;;;;;9.85;8.05;;;18.00;99.90;;;;;;5030657;28;20123;-81
2023/07/24 07:02:29;;;;;;;10.05;7.60;;;18.00;99.90;;;;;;5016964;28;20029;-81
2023/07/24 07:04:54;;;;;;;11.90;9.40;;;18.00;99.90;;;;;;5032017;28;20159;-81
2023/07/24 07:07:20;;;;;;;10.90;7.95;;;18.00;99.90;;;;;;5016015;28;20060;-82
2023/07/24 07:09:45;;;;;;;8.52;7.70;;;18.10;99.90;;;;;;5034456;28;20057;-82
2023/07/24 07:12:11;;;;;;;10.18;8.52;;;18.20;99.90;;;;;;5033119;28;20044;-82
2023/07/24 07:14:36;;;;;;;10.73;8.60;;;18.30;99.90;;;;;;5031852;28;20033;-82
2023/07/24 07:17:02;;;;;;;11.90;7.47;;;18.30;99.90;;;;;;5051480;28;20048;-81
2023/07/24 07:19:28;;;;;;;11.18;8.55;;;18.40;99.90;;;;;;5027762;28;20121;-82
2023/07/24 07:21:59;;;;;;;9.70;8.13;;;18.40;99.90;;;;;;5035591;28;20037;-82
2023/07/24 07:24:25;;;;;;;8.90;7.75;;;18.40;99.90;;;;;;5035207;28;20135;-82
2023/07/24 07:26:50;;;;;;;13.00;8.10;;;18.40;99.90;;;;;;5029310;28;20115;-82
2023/07/24 07:29:16;;;;;;;8.80;8.00;;;18.50;99.90;;;;;;5023870;28;20038;-81
2023/07/24 07:31:41;;;;;;;10.02;8.95;;;18.60;99.90;;;;;;5028320;28;20025;-83
2023/07/24 07:35:05;;;;;;;10.82;8.15;;;18.60;99.90;;;;;;5048375;28;20071;-84
2023/07/24 07:37:31;;;;;;;12.50;7.97;;;19.20;99.90;;;;;;5038213;28;20049;-83
2023/07/24 07:39:59;;;;;;;8.00;7.03;;;18.80;99.90;;;;;;5034331;28;20137;-83
2023/07/24 07:42:24;;;;;;;11.65;7.63;;;18.90;99.90;;;;;;5033896;28;20106;-83
2023/07/24 07:44:50;;;;;;;9.75;7.45;;;18.90;99.90;;;;;;5035320;28;20120;-84
2023/07/24 07:47:17;;;;;;;8.82;7.43;;;18.90;99.90;;;;;;5039464;28;20048;-83
2023/07/24 07:49:42;;;;;;;11.90;7.30;;;18.90;99.90;;;;;;5035208;28;20033;-83
2023/07/24 07:52:08;;;;;;;8.95;7.15;;;18.90;99.90;;;;;;5037419;28;20041;-84
2023/07/24 07:54:34;;;;;;;11.48;6.55;;;19.00;99.90;;;;;;5020535;28;20219;-83
2023/07/24 07:57:04;;;;;;;10.07;6.93;;;19.00;99.90;;;;;;5033312;28;20080;-84
2023/07/24 07:59:29;;;;;;;8.35;7.22;;;19.00;99.90;;;;;;5027077;28;20037;-82
2023/07/24 08:01:55;;;;;;;11.20;6.82;;;19.10;99.90;;;;;;5032971;28;20132;-82
2023/07/24 08:04:20;;;;;;;9.63;7.85;;;19.20;99.90;;;;;;5027948;28;20135;-82
2023/07/24 08:06:46;;;;;;;14.40;7.43;;;19.20;99.90;;;;;;5040236;28;20060;-82
2023/07/24 08:09:11;;;;;;;11.55;6.18;;;19.40;99.90;;;;;;5031253;28;20407;-83
2023/07/24 08:11:37;;;;;;;8.13;6.57;;;19.20;99.90;;;;;;5046443;28;20033;-82
2023/07/24 08:14:02;;;;;;;9.27;5.95;;;19.20;99.90;;;;;;5009216;28;20048;-81
2023/07/24 08:16:28;;;;;;;9.15;6.10;;;19.20;99.90;;;;;;5044921;28;20044;-82
2023/07/24 08:18:53;;;;;;;8.75;6.30;;;19.30;99.90;;;;;;5028570;28;20106;-82
2023/07/24 08:21:23;;;;;;;8.98;5.72;;;19.40;99.90;;;;;;5028583;28;20085;-82
2023/07/24 08:23:48;;;;;;;8.60;6.60;;;19.50;99.90;;;;;;5012078;28;20040;-82
2023/07/24 08:26:14;;;;;;;10.05;6.07;;;19.60;99.90;;;;;;5017223;28;20038;-82
2023/07/24 08:28:42;;;;;;;11.55;6.28;;;19.60;99.90;;;;;;5028962;28;20174;-82
2023/07/24 08:31:07;;;;;;;8.50;6.60;;;19.70;99.90;;;;;;5048864;28;20037;-83
2023/07/24 08:33:33;;;;;;;10.95;6.50;;;20.20;99.90;;;;;;5043602;28;20034;-82
2023/07/24 08:36:04;;;;;;;9.75;6.70;;;19.90;99.90;;;;;;5026846;28;20084;-81
2023/07/24 08:38:29;;;;;;;12.70;6.85;;;19.90;99.90;;;;;;5032929;28;20037;-82
2023/07/24 08:41:06;;;;;;;11.75;6.40;;;19.90;99.90;;;;;;5047022;28;20392;-82
2023/07/24 08:43:33;;;;;;;9.57;6.10;;;19.90;99.90;;;;;;5013254;28;20143;-83
2023/07/24 08:46:00;;;;;;;9.57;6.07;;;19.80;99.90;;;;;;5027032;28;20046;-82
2023/07/24 08:48:33;;;;;;;11.18;7.47;;;19.90;99.90;;;;;;5047913;28;20049;-81
2023/07/24 08:50:59;;;;;;;9.18;6.43;;;19.90;99.90;;;;;;5050090;28;20072;-82
2023/07/24 08:53:33;;;;;;;12.18;6.35;;;19.90;99.90;;;;;;5031262;28;20108;-82
2023/07/24 08:55:59;;;;;;;12.25;6.13;;;19.90;99.90;;;;;;5029154;28;20121;-83
2023/07/24 08:58:25;;;;;;;10.57;5.82;;;20.00;99.90;;;;;;5043601;28;20467;-82
2023/07/24 09:00:51;;;;;;;11.07;6.75;;;20.20;99.90;;;;;;5018607;28;20033;-82
2023/07/24 09:03:18;;;;;;;10.10;6.45;;;20.20;99.90;;;;;;5019209;28;20090;-82
2023/07/24 09:05:44;;;;;;;9.30;6.35;;;20.40;99.90;;;;;;5030969;28;20364;-83
2023/07/24 09:08:10;;;;;;;10.13;5.82;;;20.40;99.90;;;;;;5027418;28;20064;-82
2023/07/24 09:10:35;;;;;;;10.70;6.35;;;20.50;99.90;;;;;;5048403;28;20037;-82
2023/07/24 09:13:03;;;;;;;9.80;6.00;;;20.60;99.90;;;;;;5048181;28;20049;-82
2023/07/24 09:15:49;;;;;;;9.48;6.05;;;20.80;99.90;;;;;;5048587;28;20045;-82
2023/07/24 09:18:16;;;;;;;11.18;5.97;;;20.80;99.90;;;;;;5015407;28;20056;-82
2023/07/24 09:20:43;;;;;;;10.35;5.68;;;21.10;99.90;;;;;;5049275;28;20033;-82
2023/07/24 09:23:10;;;;;;;9.25;5.25;;;21.40;99.90;;;;;;5028747;28;20048;-82
2023/07/24 09:25:37;;;;;;;14.60;5.70;;;21.70;99.90;;;;;;5044807;28;20033;-82
2023/07/24 09:28:17;;;;;;;8.60;5.22;;;21.80;99.90;;;;;;5014842;28;20400;-82
2023/07/24 09:30:55;;;;;;;7.82;5.30;;;22.00;99.90;;;;;;5030165;28;20089;-82
2023/07/24 09:33:43;;;;;;;11.23;5.28;;;22.20;99.90;;;;;;5025787;28;20036;-82
2023/07/24 09:36:10;;;;;;;8.00;5.00;;;22.40;99.90;;;;;;5013917;28;20550;-82
2023/07/24 09:38:37;;;;;;;8.13;4.43;;;22.70;99.90;;;;;;5020012;28;20087;-82
2023/07/24 09:41:03;;;;;;;6.97;4.43;;;22.50;99.90;;;;;;5019229;28;20036;-83
2023/07/24 09:43:30;;;;;;;9.43;5.07;;;22.40;99.90;;;;;;5035248;28;20032;-82
2023/07/24 09:45:57;;;;;;;8.18;4.40;;;22.50;99.90;;;;;;5029500;28;20516;-82
2023/07/24 09:48:24;;;;;;;9.75;5.00;;;22.50;99.90;;;;;;5050797;28;20041;-82
2023/07/24 09:50:55;;;;;;;9.57;5.55;;;22.50;99.90;;;;;;5018362;28;20041;-83
2023/07/24 09:53:43;;;;;;;7.90;4.80;;;22.70;99.90;;;;;;5031063;28;20087;-82
2023/07/24 09:56:09;;;;;;;7.45;4.32;;;22.80;99.90;;;;;;5031814;28;20067;-82
2023/07/24 09:58:38;;;;;;;7.78;4.38;;;22.70;99.90;;;;;;5050169;28;20114;-82
2023/07/24 10:01:07;;;;;;;7.78;4.38;;;22.70;99.90;;;;;;5048530;28;20044;-82
2023/07/24 10:03:35;;;;;;;6.28;4.53;;;22.90;99.90;;;;;;5019066;28;20095;-82
2023/07/24 10:06:01;;;;;;;6.53;4.50;;;23.10;99.90;;;;;;5018628;28;20048;-82
2023/07/24 10:08:27;;;;;;;7.22;4.47;;;23.10;99.90;;;;;;5030980;28;20939;-82
2023/07/24 10:10:53;;;;;;;7.28;4.28;;;22.90;99.90;;;;;;5011986;28;20048;-82
2023/07/24 10:13:21;;;;;;;8.57;4.95;;;22.90;99.90;;;;;;5011194;28;20034;-81
2023/07/24 10:15:48;;;;;;;10.18;4.88;;;22.90;99.90;;;;;;5013839;28;20492;-82
2023/07/24 10:18:17;;;;;;;10.60;4.57;;;22.80;99.90;;;;;;5026243;28;20077;-82
2023/07/24 10:20:43;;;;;;;8.18;4.72;;;22.80;99.90;;;;;;5051332;28;20056;-82
2023/07/24 10:23:10;;;;;;;8.70;5.10;;;22.80;99.90;;;;;;5033640;28;20041;-81
2023/07/24 10:25:40;;;;;;;5.55;4.35;;;22.90;99.90;;;;;;5030135;28;20156;-81
2023/07/24 10:28:10;;;;;;;8.57;4.40;;;23.10;99.90;;;;;;5032879;28;20041;-81
2023/07/24 10:30:39;;;;;;;7.22;4.63;;;23.00;99.90;;;;;;5032970;28;20561;-81
2023/07/24 10:33:10;;;;;;;9.65;5.18;;;23.20;99.90;;;;;;5034760;28;20041;-82
2023/07/24 10:35:48;;;;;;;8.60;4.38;;;23.30;99.90;;;;;;5029599;28;20051;-82
2023/07/24 10:38:15;;;;;;;7.38;4.70;;;23.30;99.90;;;;;;5032440;28;20429;-83
2023/07/24 10:40:42;;;;;;;10.32;5.78;;;23.30;99.90;;;;;;5030971;28;20048;-82
2023/07/24 10:43:11;;;;;;;8.48;4.30;;;23.30;99.90;;;;;;5034375;28;20068;-82
2023/07/24 10:45:48;;;;;;;9.43;4.30;;;23.30;99.90;;;;;;5043864;28;20039;-82
2023/07/24 10:48:33;;;;;;;8.25;4.32;;;23.20;99.90;;;;;;5033303;28;20052;-82
2023/07/24 10:51:07;;;;;;;9.27;4.47;;;23.30;99.90;;;;;;5040800;28;20450;-82
2023/07/24 10:53:36;;;;;;;10.65;4.85;;;23.10;99.90;;;;;;5049432;28;20052;-82
2023/07/24 10:56:02;;;;;;;7.13;3.97;;;23.00;99.90;;;;;;5029111;28;20056;-83
2023/07/24 10:58:27;;;;;;;6.32;4.03;;;22.80;99.90;;;;;;5026428;28;20037;-82
2023/07/24 11:00:53;;;;;;;11.73;5.10;;;22.60;99.90;;;;;;5050577;28;20060;-82
2023/07/24 11:03:19;;;;;;;8.98;5.35;;;22.40;99.90;;;;;;5048645;28;20079;-82
2023/07/24 11:05:46;;;;;;;10.52;5.85;;;22.10;99.90;;;;;;5017368;28;20076;-82
2023/07/24 11:08:17;;;;;;;11.60;5.70;;;21.90;99.90;;;;;;5025509;28;20103;-82
2023/07/24 11:10:50;;;;;;;6.70;4.35;;;21.70;99.90;;;;;;5027596;28;20046;-82
2023/07/24 11:13:17;;;;;;;8.25;4.13;;;21.50;99.90;;;;;;5029028;28;20059;-81
2023/07/24 11:15:42;;;;;;;8.90;4.10;;;21.40;99.90;;;;;;5022429;28;20251;-81
2023/07/24 11:18:08;;;;;;;7.18;4.30;;;21.20;99.90;;;;;;5030673;28;20739;-81
2023/07/24 11:20:45;;;;;;;6.72;4.25;;;21.30;99.90;;;;;;5049950;28;20171;-81
2023/07/24 11:23:11;;;;;;;9.07;5.25;;;21.30;99.90;;;;;;5042833;28;20100;-81
2023/07/24 11:25:37;;;;;;;8.23;5.22;;;21.30;99.90;;;;;;5045913;28;20033;-82
2023/07/24 11:28:05;;;;;;;8.32;4.90;;;21.40;99.90;;;;;;5030958;28;20045;-82
2023/07/24 11:30:31;;;;;;;6.88;5.10;;;21.40;99.90;;;;;;5016606;28;20045;-82
2023/07/24 11:33:00;;;;;;;12.30;6.20;;;21.40;99.90;;;;;;5034583;28;20055;-82
2023/07/24 11:35:26;;;;;;;9.00;5.80;;;21.40;99.90;;;;;;5016224;28;20500;-82
2023/07/24 11:37:52;;;;;;;14.18;6.85;;;21.50;99.90;;;;;;5023816;28;20048;-81
2023/07/24 11:40:19;;;;;;;7.78;5.55;;;21.60;99.90;;;;;;5026607;28;20045;-81
2023/07/24 11:42:48;;;;;;;7.55;5.50;;;21.70;99.90;;;;;;5027562;28;20491;-82
2023/07/24 11:45:15;;;;;;;9.90;5.75;;;21.80;99.90;;;;;;5015763;28;20044;-83
2023/07/24 11:47:48;;;;;;;8.48;4.93;;;21.90;99.90;;;;;;5015476;28;20044;-82
2023/07/24 11:50:15;;;;;;;10.50;6.13;;;22.00;99.90;;;;;;5046021;28;20102;-81
2023/07/24 11:52:45;;;;;;;8.85;5.43;;;22.10;99.90;;;;;;5040179;28;20037;-83
2023/07/24 11:55:12;;;;;;;10.68;5.25;;;22.30;99.90;;;;;;5046747;28;20064;-82
2023/07/24 11:57:38;;;;;;;8.75;4.35;;;22.50;99.90;;;;;;5047120;28;20040;-82
2023/07/24 12:00:05;;;;;;;4.95;3.85;;;22.70;99.90;;;;;;5015236;28;20541;-81
2023/07/24 12:02:35;;;;;;;8.38;4.25;;;22.80;99.90;;;;;;5030379;28;20033;-82
2023/07/24 12:05:01;;;;;;;9.20;4.10;;;22.90;99.90;;;;;;5030259;28;20045;-82
2023/07/24 12:07:34;;;;;;;8.30;4.82;;;23.20;99.90;;;;;;5027913;28;20444;-82
2023/07/24 12:10:07;;;;;;;8.38;4.00;;;23.30;99.90;;;;;;5051222;28;20119;-83
2023/07/24 12:12:46;;;;;;;6.55;4.95;;;23.30;99.90;;;;;;5042572;28;20412;-82
2023/07/24 12:15:14;;;;;;;9.60;4.90;;;23.10;99.90;;;;;;5030125;28;20041;-82
2023/07/24 12:17:42;;;;;;;10.40;5.75;;;22.90;99.90;;;;;;5044090;28;21559;-82
2023/07/24 12:20:12;;;;;;;8.98;3.97;;;22.80;99.90;;;;;;5030317;28;20060;-82
2023/07/24 12:22:38;;;;;;;6.72;3.88;;;22.80;99.90;;;;;;5029014;28;20044;-82
2023/07/24 12:25:05;;;;;;;8.20;3.97;;;23.00;99.90;;;;;;5012516;28;20041;-83
2023/07/24 12:27:31;;;;;;;9.27;4.45;;;23.20;99.90;;;;;;5011843;28;20125;-82
2023/07/24 12:29:58;;;;;;;6.88;4.30;;;23.40;99.90;;;;;;5029604;28;20077;-82
2023/07/24 12:32:27;;;;;;;10.50;4.30;;;23.30;99.90;;;;;;5016148;28;20075;-82
2023/07/24 12:34:53;;;;;;;7.75;3.92;;;23.40;99.90;;;;;;5031387;28;20123;-83
2023/07/24 12:37:19;;;;;;;5.82;3.03;;;23.40;99.90;;;;;;5049163;28;20033;-82
2023/07/24 12:39:55;;;;;;;12.65;4.20;;;23.50;99.90;;;;;;5027337;28;20065;-83
2023/07/24 12:42:20;;;;;;;6.30;3.35;;;23.70;99.90;;;;;;5026887;28;20069;-82
2023/07/24 12:44:46;;;;;;;5.95;2.95;;;23.80;99.90;;;;;;5011649;28;20086;-82
2023/07/24 12:47:12;;;;;;;5.75;2.95;;;23.90;99.90;;;;;;5025342;28;20087;-82